Time;durP1;ratioP1;P1;durP2;ratioP2;P2;SDS_P1;SDS_P2;PMS_P1;PMS_P2;Temp;Humidity;BMP_temperature;BMP_pressure;BME280_temperature;BME280_humidity;BME280_pressure;Samples;Min_cycle;Max_cycle;Signal;HPM_P1;HPM_P2
2021/08/03 00:00:33;;;;;;;6.35;2.35;;;614.60;1561.60;;;;;;5094544;28;20039;-69
2021/08/03 00:03:01;;;;;;;7.90;2.70;;;614.70;1561.60;;;;;;5094362;28;20511;-69
2021/08/03 00:05:30;;;;;;;5.25;2.10;;;614.60;1561.60;;;;;;5094277;28;20396;-69
2021/08/03 00:08:07;;;;;;;3.40;2.30;;;614.60;1587.20;;;;;;5094494;28;20036;-69
2021/08/03 00:10:33;;;;;;;10.00;2.80;;;614.50;1561.60;;;;;;5094501;28;20510;-69
2021/08/03 00:13:01;;;;;;;6.30;2.60;;;614.40;1561.60;;;;;;5094265;28;20028;-69
2021/08/03 00:15:28;;;;;;;6.18;2.30;;;614.40;1561.60;;;;;;5092930;28;20027;-69
2021/08/03 00:17:55;;;;;;;3.65;2.33;;;614.40;1561.60;;;;;;5094051;28;20480;-69
2021/08/03 00:20:23;;;;;;;5.43;2.30;;;614.40;1561.60;;;;;;5092749;28;20027;-70
2021/08/03 00:22:49;;;;;;;3.88;2.30;;;614.50;1561.60;;;;;;5092693;28;20024;-70
2021/08/03 00:25:15;;;;;;;5.85;2.40;;;614.50;1561.60;;;;;;5092637;28;20111;-69
2021/08/03 00:27:42;;;;;;;3.90;2.03;;;614.40;1561.60;;;;;;5093918;28;20032;-69
2021/08/03 00:30:09;;;;;;;8.43;2.75;;;614.40;1536.00;;;;;;5092676;28;20575;-69
2021/08/03 00:32:35;;;;;;;5.43;2.78;;;614.40;1536.00;;;;;;5093993;28;20534;-69
2021/08/03 00:35:01;;;;;;;4.25;2.65;;;614.40;1536.00;;;;;;5093814;28;20403;-70
2021/08/03 00:37:27;;;;;;;8.65;2.80;;;614.40;1561.60;;;;;;5093849;28;20031;-69
2021/08/03 00:39:53;;;;;;;7.75;2.72;;;614.40;1561.60;;;;;;5093926;28;20012;-70
2021/08/03 00:42:19;;;;;;;5.75;2.53;;;614.40;1536.00;;;;;;5092544;28;20027;-82
2021/08/03 00:44:50;;;;;;;6.50;2.80;;;614.40;1561.60;;;;;;5093823;28;20077;-69
2021/08/03 00:47:20;;;;;;;7.20;2.67;;;614.40;1561.60;;;;;;5092175;28;20044;-84
2021/08/03 00:49:46;;;;;;;5.97;2.88;;;589.70;1561.60;;;;;;5094273;28;20072;-69
2021/08/03 00:52:15;;;;;;;4.35;2.40;;;589.70;1561.60;;;;;;5093640;28;20035;-69
2021/08/03 00:54:41;;;;;;;5.05;2.42;;;589.70;1561.60;;;;;;5092270;28;20028;-69
2021/08/03 00:57:09;;;;;;;3.95;2.70;;;589.60;1561.60;;;;;;5093701;28;20016;-69
2021/08/03 00:59:35;;;;;;;7.68;3.00;;;589.50;1561.60;;;;;;5093897;28;20099;-70
2021/08/03 01:02:06;;;;;;;5.38;2.58;;;589.40;1587.20;;;;;;5092315;28;20016;-69
2021/08/03 01:04:33;;;;;;;8.57;2.80;;;589.60;1561.60;;;;;;5096281;28;20024;-69
2021/08/03 01:07:14;;;;;;;4.38;2.65;;;589.60;1561.60;;;;;;5097673;28;20034;-70
2021/08/03 01:10:07;;;;;;;5.63;3.08;;;589.60;1561.60;;;;;;5096406;28;20038;-69
2021/08/03 01:12:55;;;;;;;4.65;2.90;;;589.60;1561.60;;;;;;5097689;28;20024;-69
2021/08/03 01:15:28;;;;;;;8.82;3.35;;;589.60;1561.60;;;;;;5098306;28;20024;-70
2021/08/03 01:18:01;;;;;;;5.72;3.13;;;589.60;1561.60;;;;;;5097934;28;20023;-69
2021/08/03 01:20:32;;;;;;;5.00;2.97;;;589.50;1561.60;;;;;;5097640;28;20028;-69
2021/08/03 01:23:52;;;;;;;5.22;3.08;;;589.50;1561.60;;;;;;5097537;28;20016;-70
2021/08/03 01:26:26;;;;;;;2.95;2.63;;;589.40;1587.20;;;;;;5054976;28;20025;-84
2021/08/03 01:28:58;;;;;;;6.35;3.28;;;589.40;1561.60;;;;;;5054898;28;20033;-69
2021/08/03 01:31:32;;;;;;;4.85;3.30;;;589.40;1561.60;;;;;;5083174;28;20032;-84
2021/08/03 01:34:08;;;;;;;5.93;3.40;;;589.30;1587.20;;;;;;5097199;28;20031;-69
2021/08/03 01:36:36;;;;;;;5.32;2.90;;;589.30;1587.20;;;;;;5097380;28;20030;-69
2021/08/03 01:39:06;;;;;;;6.25;3.00;;;589.30;1587.20;;;;;;5095763;28;20020;-69
2021/08/03 01:41:34;;;;;;;5.85;2.75;;;589.30;1587.20;;;;;;5095788;28;20112;-69
2021/08/03 01:44:02;;;;;;;4.60;3.08;;;589.30;1587.20;;;;;;5097056;28;20024;-69
2021/08/03 01:46:29;;;;;;;7.65;3.22;;;589.30;1587.20;;;;;;5096718;28;20492;-69
2021/08/03 01:48:59;;;;;;;3.85;3.05;;;589.10;1587.20;;;;;;5096952;28;20445;-70
2021/08/03 01:51:26;;;;;;;7.38;3.15;;;589.10;1612.80;;;;;;5096822;28;20376;-69
2021/08/03 01:53:54;;;;;;;5.40;3.25;;;589.10;1612.80;;;;;;5097221;28;20031;-85
2021/08/03 01:56:22;;;;;;;8.65;3.20;;;589.00;1612.80;;;;;;5097129;28;20024;-74
2021/08/03 01:58:49;;;;;;;6.57;3.47;;;589.10;1612.80;;;;;;5097278;28;20069;-85
2021/08/03 02:01:18;;;;;;;8.75;3.83;;;589.10;1587.20;;;;;;5096850;28;20060;-85
2021/08/03 02:03:45;;;;;;;6.53;3.22;;;589.10;1612.80;;;;;;5095713;28;20024;-69
2021/08/03 02:06:11;;;;;;;5.55;3.70;;;589.10;1612.80;;;;;;5096809;28;20020;-69
2021/08/03 02:08:37;;;;;;;12.52;3.67;;;589.10;1612.80;;;;;;5096751;28;20028;-85
2021/08/03 02:11:04;;;;;;;13.35;3.80;;;589.00;1612.80;;;;;;5096910;28;20070;-84
2021/08/03 02:13:30;;;;;;;6.47;3.25;;;588.90;1638.40;;;;;;5096595;28;20028;-69
2021/08/03 02:15:56;;;;;;;5.47;3.40;;;588.90;1638.40;;;;;;5095959;28;20016;-85
2021/08/03 02:18:22;;;;;;;4.35;3.25;;;588.80;1612.80;;;;;;5096881;28;20521;-69
2021/08/03 02:20:48;;;;;;;5.68;3.35;;;588.90;1612.80;;;;;;5096289;28;20488;-69
2021/08/03 02:23:15;;;;;;;9.90;3.58;;;588.90;1612.80;;;;;;5094929;28;20111;-85
2021/08/03 02:25:42;;;;;;;5.18;3.88;;;588.90;1612.80;;;;;;5096483;28;20107;-83
2021/08/03 02:28:08;;;;;;;7.30;3.45;;;589.00;1612.80;;;;;;5095095;28;20039;-84
2021/08/03 02:30:35;;;;;;;9.68;3.95;;;588.90;1587.20;;;;;;5095045;28;20020;-69
2021/08/03 02:33:22;;;;;;;5.03;3.90;;;589.00;1587.20;;;;;;5094879;28;20024;-69
2021/08/03 02:35:55;;;;;;;6.43;3.63;;;589.00;1561.60;;;;;;5096150;28;20495;-69
2021/08/03 02:38:26;;;;;;;4.20;3.47;;;589.00;1587.20;;;;;;5096241;28;20016;-70
2021/08/03 02:40:53;;;;;;;7.85;3.90;;;589.00;1587.20;;;;;;5095911;28;20020;-69
2021/08/03 02:43:22;;;;;;;10.85;3.60;;;589.00;1587.20;;;;;;5095892;28;20117;-69
2021/08/03 02:45:49;;;;;;;8.65;4.13;;;589.00;1587.20;;;;;;5095638;28;20044;-69
2021/08/03 02:48:18;;;;;;;6.07;3.85;;;589.00;1587.20;;;;;;5095700;28;20031;-70
2021/08/03 02:50:46;;;;;;;5.25;3.50;;;589.00;1587.20;;;;;;5094572;28;20048;-69
2021/08/03 02:53:24;;;;;;;4.75;3.95;;;589.00;1587.20;;;;;;5095908;28;20028;-69
2021/08/03 02:56:09;;;;;;;9.18;4.10;;;589.00;1587.20;;;;;;5095822;28;20542;-69
2021/08/03 02:58:40;;;;;;;14.32;4.30;;;588.90;1587.20;;;;;;5095987;28;20465;-69
2021/08/03 03:01:08;;;;;;;7.50;3.75;;;588.90;1587.20;;;;;;5094332;28;20064;-69
2021/08/03 03:03:38;;;;;;;9.73;4.00;;;588.90;1587.20;;;;;;5095182;28;20034;-72
2021/08/03 03:06:07;;;;;;;7.65;3.85;;;589.00;1561.60;;;;;;5095370;28;20491;-70
2021/08/03 03:08:35;;;;;;;6.15;4.03;;;588.90;1561.60;;;;;;5095497;28;20085;-69
2021/08/03 03:11:04;;;;;;;5.90;3.08;;;589.00;1561.60;;;;;;5094965;28;20024;-69
2021/08/03 03:13:48;;;;;;;6.30;3.22;;;589.00;1587.20;;;;;;5095181;28;20537;-69
2021/08/03 03:16:17;;;;;;;5.38;3.20;;;589.00;1561.60;;;;;;5095228;28;20026;-69
2021/08/03 03:18:44;;;;;;;5.82;3.67;;;589.00;1561.60;;;;;;5095130;28;20043;-69
2021/08/03 03:21:14;;;;;;;9.95;4.00;;;589.00;1561.60;;;;;;5095145;28;20020;-69
2021/08/03 03:23:41;;;;;;;11.88;3.53;;;589.00;1561.60;;;;;;5095033;28;20082;-69
2021/08/03 03:26:07;;;;;;;6.35;3.72;;;589.00;1587.20;;;;;;5092956;28;20103;-69
2021/08/03 03:28:37;;;;;;;10.15;3.92;;;589.00;1587.20;;;;;;5094748;28;20030;-69
2021/08/03 03:31:04;;;;;;;8.65;4.20;;;589.00;1587.20;;;;;;5093627;28;20104;-69
2021/08/03 03:33:32;;;;;;;13.70;4.97;;;589.00;1587.20;;;;;;5094876;28;20111;-69
2021/08/03 03:36:01;;;;;;;15.38;4.95;;;589.00;1587.20;;;;;;5094820;28;20024;-85
2021/08/03 03:38:28;;;;;;;12.77;4.60;;;589.00;1612.80;;;;;;5094763;28;20524;-80
2021/08/03 03:40:56;;;;;;;32.58;6.38;;;589.00;1638.40;;;;;;5093484;28;20046;-73
2021/08/03 03:43:23;;;;;;;33.10;7.10;;;589.00;1664.00;;;;;;5094742;28;20024;-86
2021/08/03 03:46:07;;;;;;;11.32;6.63;;;589.00;1689.60;;;;;;5094384;28;20040;-69
2021/08/03 03:49:04;;;;;;;17.25;6.63;;;589.00;1689.60;;;;;;5094550;28;20081;-69
2021/08/03 03:51:34;;;;;;;16.83;5.85;;;588.90;1689.60;;;;;;5085341;28;20040;-69
2021/08/03 03:54:05;;;;;;;13.55;6.10;;;588.90;1715.20;;;;;;5094556;28;20039;-69
2021/08/03 03:56:44;;;;;;;10.52;6.45;;;588.90;1715.20;;;;;;5094574;28;20031;-69
2021/08/03 03:59:11;;;;;;;14.45;6.50;;;588.90;1715.20;;;;;;5093591;28;20124;-71
2021/08/03 04:01:39;;;;;;;13.13;6.03;;;588.80;1740.80;;;;;;5094710;28;20031;-85
2021/08/03 04:04:07;;;;;;;16.65;6.18;;;588.80;1740.80;;;;;;5094004;28;20381;-70
2021/08/03 04:06:34;;;;;;;16.90;5.95;;;588.80;1740.80;;;;;;5094072;28;20028;-71
2021/08/03 04:09:00;;;;;;;8.93;5.50;;;588.80;1715.20;;;;;;5094021;28;20032;-69
2021/08/03 04:11:26;;;;;;;13.82;5.07;;;588.80;1715.20;;;;;;5093932;28;20039;-85
2021/08/03 04:13:54;;;;;;;8.05;5.15;;;588.90;1689.60;;;;;;5094017;28;20472;-84
2021/08/03 04:16:21;;;;;;;7.57;4.78;;;588.90;1715.20;;;;;;5094025;28;20020;-70
2021/08/03 04:18:47;;;;;;;12.40;5.07;;;589.00;1689.60;;;;;;5094083;28;20028;-69
2021/08/03 04:21:13;;;;;;;9.15;5.07;;;589.00;1715.20;;;;;;5094031;28;20024;-69
2021/08/03 04:23:39;;;;;;;7.93;5.07;;;589.00;1715.20;;;;;;5093928;28;20032;-69
2021/08/03 04:26:05;;;;;;;10.52;5.22;;;589.00;1715.20;;;;;;5094297;28;20017;-70
2021/08/03 04:28:31;;;;;;;8.07;5.00;;;589.00;1715.20;;;;;;5094097;28;20035;-69
2021/08/03 04:30:59;;;;;;;9.60;4.97;;;589.00;1715.20;;;;;;5093772;28;20019;-70
2021/08/03 04:33:26;;;;;;;9.20;5.03;;;589.00;1715.20;;;;;;5093824;28;20046;-69
2021/08/03 04:35:52;;;;;;;8.57;4.95;;;589.00;1689.60;;;;;;5093832;28;20091;-69
2021/08/03 04:38:18;;;;;;;7.03;4.68;;;589.00;1689.60;;;;;;5092429;28;20048;-69
2021/08/03 04:40:43;;;;;;;9.65;5.45;;;589.00;1715.20;;;;;;5093867;28;20024;-72
2021/08/03 04:43:09;;;;;;;7.13;4.90;;;589.00;1740.80;;;;;;5092896;28;20027;-69
2021/08/03 04:45:35;;;;;;;5.97;4.90;;;589.00;1766.40;;;;;;5089481;28;20040;-83
2021/08/03 04:48:02;;;;;;;13.55;5.88;;;589.00;1740.80;;;;;;5093800;28;20052;-85
2021/08/03 04:50:28;;;;;;;13.35;5.30;;;589.00;1740.80;;;;;;5093949;28;20081;-83
2021/08/03 04:52:56;;;;;;;8.43;5.55;;;589.00;1740.80;;;;;;5092743;28;20365;-85
2021/08/03 04:55:22;;;;;;;13.18;6.28;;;589.10;1715.20;;;;;;5093697;28;20016;-85
2021/08/03 04:57:48;;;;;;;9.27;5.65;;;589.10;1715.20;;;;;;5093823;28;20094;-85
2021/08/03 05:00:16;;;;;;;9.95;6.03;;;589.10;1740.80;;;;;;5093965;28;20472;-81
2021/08/03 05:02:42;;;;;;;9.32;5.30;;;589.10;1792.00;;;;;;5093846;28;20028;-72
2021/08/03 05:05:09;;;;;;;6.85;4.72;;;589.10;1740.80;;;;;;5093668;28;20024;-73
2021/08/03 05:07:35;;;;;;;4.47;3.70;;;589.10;1766.40;;;;;;5093487;28;20036;-71
2021/08/03 05:10:13;;;;;;;7.47;3.70;;;589.00;1740.80;;;;;;5093614;28;20073;-78
2021/08/03 05:12:39;;;;;;;8.57;3.50;;;589.00;1740.80;;;;;;5093552;28;20157;-80
2021/08/03 05:15:07;;;;;;;8.80;3.95;;;589.00;1740.80;;;;;;5092027;28;20091;-79
2021/08/03 05:17:34;;;;;;;6.20;3.45;;;589.00;1740.80;;;;;;5091646;28;20056;-83
2021/08/03 05:20:00;;;;;;;7.60;3.75;;;589.10;1740.80;;;;;;5092653;28;20072;-81
2021/08/03 05:22:27;;;;;;;69.70;58.83;;;589.10;1740.80;;;;;;5095283;28;20067;-71
2021/08/03 05:24:53;;;;;;;58.00;38.20;;;589.10;1766.40;;;;;;5093110;28;20573;-84
2021/08/03 05:27:19;;;;;;;17.30;9.32;;;589.10;1740.80;;;;;;5092720;28;20469;-84
2021/08/03 05:29:45;;;;;;;9.95;5.68;;;589.10;1740.80;;;;;;5093386;28;20055;-82
2021/08/03 05:32:11;;;;;;;14.02;4.05;;;589.10;1740.80;;;;;;5091666;28;20484;-71
2021/08/03 05:34:37;;;;;;;8.23;3.83;;;589.10;1740.80;;;;;;5091745;28;20103;-72
2021/08/03 05:37:05;;;;;;;7.22;3.78;;;589.10;1740.80;;;;;;5093211;28;20020;-71
2021/08/03 05:39:31;;;;;;;5.10;3.88;;;589.10;1740.80;;;;;;5093279;28;20030;-85
2021/08/03 05:41:58;;;;;;;10.00;3.58;;;589.10;1740.80;;;;;;5090113;28;20077;-85
2021/08/03 05:44:24;;;;;;;9.75;3.95;;;589.00;1766.40;;;;;;5092844;28;20099;-80
2021/08/03 05:46:49;;;;;;;23.55;4.75;;;589.00;1740.80;;;;;;5091886;28;20138;-82
2021/08/03 05:49:15;;;;;;;10.68;4.07;;;589.10;1740.80;;;;;;5093115;28;20411;-85
2021/08/03 05:51:41;;;;;;;8.07;4.00;;;589.10;1766.40;;;;;;5096801;28;20025;-71
2021/08/03 05:54:07;;;;;;;12.50;5.45;;;589.10;1766.40;;;;;;5096683;28;20068;-86
2021/08/03 05:56:33;;;;;;;7.05;4.55;;;589.10;1792.00;;;;;;5097294;28;20027;-86
2021/08/03 05:58:59;;;;;;;8.98;5.82;;;589.10;1792.00;;;;;;5097161;28;20065;-80
2021/08/03 06:01:25;;;;;;;9.00;4.45;;;589.10;1817.60;;;;;;5096341;28;20028;-70
2021/08/03 06:03:50;;;;;;;9.38;3.97;;;589.10;1817.60;;;;;;5095919;28;20027;-70
2021/08/03 06:06:20;;;;;;;12.65;10.27;;;589.10;1792.00;;;;;;5096004;28;20103;-70
2021/08/03 06:08:47;;;;;;;9.25;5.97;;;589.10;1792.00;;;;;;5096050;28;20047;-70
2021/08/03 06:11:20;;;;;;;11.73;4.70;;;589.10;1817.60;;;;;;5095824;28;20023;-70
2021/08/03 06:13:49;;;;;;;6.05;4.88;;;589.10;1792.00;;;;;;5095860;28;20020;-70
2021/08/03 06:16:17;;;;;;;8.77;4.70;;;589.00;1817.60;;;;;;5095423;28;20099;-70
2021/08/03 06:18:45;;;;;;;8.57;4.82;;;589.00;1843.20;;;;;;5095910;28;20016;-69
2021/08/03 06:21:13;;;;;;;7.88;5.40;;;589.00;1843.20;;;;;;5095291;28;20559;-69
2021/08/03 06:23:41;;;;;;;7.38;4.40;;;589.00;1843.20;;;;;;5095555;28;20097;-71
2021/08/03 06:26:09;;;;;;;9.13;4.70;;;589.00;1868.80;;;;;;5094112;28;20027;-71
2021/08/03 06:28:35;;;;;;;7.93;4.28;;;589.00;1843.20;;;;;;5095563;28;20058;-72
2021/08/03 06:31:02;;;;;;;6.25;4.53;;;589.10;1843.20;;;;;;5095545;28;20081;-71
2021/08/03 06:33:28;;;;;;;10.10;4.20;;;589.10;1843.20;;;;;;5095269;28;20027;-70
2021/08/03 06:35:54;;;;;;;9.60;4.65;;;589.10;1843.20;;;;;;5095793;28;20020;-71
2021/08/03 06:38:21;;;;;;;6.80;4.30;;;589.20;1843.20;;;;;;5095195;28;20021;-70
2021/08/03 06:40:50;;;;;;;7.88;3.92;;;589.30;1817.60;;;;;;5095654;28;20024;-71
2021/08/03 06:43:21;;;;;;;7.72;4.30;;;589.30;1817.60;;;;;;5094757;28;20056;-70
2021/08/03 06:45:53;;;;;;;7.28;4.60;;;589.30;1817.60;;;;;;5095257;28;20040;-71
2021/08/03 06:48:37;;;;;;;6.28;3.67;;;589.40;1792.00;;;;;;5094762;28;20035;-69
2021/08/03 06:51:08;;;;;;;6.15;3.22;;;589.70;1792.00;;;;;;5095429;28;20476;-70
2021/08/03 06:53:37;;;;;;;7.35;3.88;;;589.50;1766.40;;;;;;5093384;28;20024;-70
2021/08/03 06:56:04;;;;;;;8.40;3.65;;;589.50;1792.00;;;;;;5095255;28;20020;-70
2021/08/03 06:58:58;;;;;;;7.32;3.67;;;589.60;1766.40;;;;;;5095022;28;20036;-70
2021/08/03 07:01:30;;;;;;;6.00;3.67;;;589.60;1766.40;;;;;;5094771;28;20548;-86
2021/08/03 07:04:02;;;;;;;5.63;3.50;;;589.60;1740.80;;;;;;5094784;28;20035;-71
2021/08/03 07:06:31;;;;;;;6.37;3.73;;;589.60;1715.20;;;;;;5091657;28;20027;-71
2021/08/03 07:09:02;;;;;;;5.80;3.60;;;589.60;1740.80;;;;;;5093363;28;20024;-70
2021/08/03 07:11:29;;;;;;;4.88;3.65;;;589.70;1715.20;;;;;;5092776;28;20050;-71
2021/08/03 07:13:58;;;;;;;5.03;3.72;;;614.40;1715.20;;;;;;5094515;28;20024;-70
2021/08/03 07:16:26;;;;;;;9.68;4.28;;;614.60;1715.20;;;;;;5094144;28;20498;-70
2021/08/03 07:18:53;;;;;;;7.32;5.03;;;614.60;1715.20;;;;;;5094593;28;20028;-70
2021/08/03 07:21:19;;;;;;;6.45;3.70;;;614.80;1715.20;;;;;;5094111;28;20039;-70
2021/08/03 07:23:47;;;;;;;5.63;3.13;;;614.80;1664.00;;;;;;5094585;28;20028;-71
2021/08/03 07:26:13;;;;;;;6.63;3.28;;;614.90;1638.40;;;;;;5094101;28;20082;-82
2021/08/03 07:28:38;;;;;;;7.47;3.47;;;614.90;1664.00;;;;;;5093188;28;20028;-70
2021/08/03 07:31:04;;;;;;;6.78;3.60;;;615.00;1638.40;;;;;;5094524;28;20023;-71
2021/08/03 07:33:30;;;;;;;8.40;3.47;;;615.10;1638.40;;;;;;5093693;28;20032;-70
2021/08/03 07:35:56;;;;;;;4.78;3.72;;;615.10;1612.80;;;;;;5094513;28;20058;-71
2021/08/03 07:38:22;;;;;;;6.28;3.75;;;615.20;1612.80;;;;;;5094039;28;20024;-70
2021/08/03 07:40:47;;;;;;;10.25;4.88;;;615.20;1612.80;;;;;;5094585;28;20039;-69
2021/08/03 07:43:13;;;;;;;6.43;4.50;;;615.20;1612.80;;;;;;5093642;28;20047;-71
2021/08/03 07:45:39;;;;;;;11.43;3.88;;;640.00;1612.80;;;;;;5093383;28;20077;-71
2021/08/03 07:48:07;;;;;;;5.03;3.17;;;640.10;1612.80;;;;;;5092144;28;20054;-70
2021/08/03 07:50:35;;;;;;;7.68;3.42;;;640.10;1587.20;;;;;;5093443;28;20094;-70
2021/08/03 07:53:01;;;;;;;5.70;3.38;;;640.20;1587.20;;;;;;5093635;28;20059;-71
2021/08/03 07:55:27;;;;;;;9.40;2.92;;;640.20;1561.60;;;;;;5092235;28;20051;-70
2021/08/03 07:57:53;;;;;;;5.70;2.75;;;640.20;1561.60;;;;;;5092973;28;20024;-70
2021/08/03 08:00:18;;;;;;;4.35;3.17;;;640.20;1536.00;;;;;;5093610;28;20473;-70
2021/08/03 08:02:44;;;;;;;3.58;2.80;;;640.20;1561.60;;;;;;5094192;28;20028;-70
2021/08/03 08:05:10;;;;;;;5.60;2.85;;;640.40;1510.40;;;;;;5093410;28;20111;-69
2021/08/03 08:07:36;;;;;;;4.72;2.45;;;640.50;1536.00;;;;;;5093473;28;20044;-71
2021/08/03 08:10:03;;;;;;;4.30;2.60;;;640.50;1536.00;;;;;;5093506;28;20066;-71
2021/08/03 08:12:28;;;;;;;4.30;3.00;;;640.60;1510.40;;;;;;5091777;28;20043;-72
2021/08/03 08:14:54;;;;;;;5.43;2.30;;;640.60;1510.40;;;;;;5092328;28;20047;-73
2021/08/03 08:17:20;;;;;;;6.65;3.25;;;640.60;1484.80;;;;;;5092003;28;20407;-70
2021/08/03 08:19:46;;;;;;;8.45;3.22;;;640.60;1510.40;;;;;;5092441;28;20053;-70
2021/08/03 08:22:12;;;;;;;5.32;3.60;;;640.70;1536.00;;;;;;5091852;28;20069;-72
2021/08/03 08:24:38;;;;;;;7.25;3.30;;;640.80;1536.00;;;;;;5092165;28;20020;-79
2021/08/03 08:27:03;;;;;;;8.80;2.70;;;640.80;1536.00;;;;;;5091773;28;20476;-70
2021/08/03 08:29:29;;;;;;;7.07;2.45;;;665.60;1561.60;;;;;;5092109;28;20032;-71
2021/08/03 08:31:55;;;;;;;6.70;2.85;;;665.60;1561.60;;;;;;5091937;28;20106;-71
2021/08/03 08:34:21;;;;;;;12.80;3.00;;;665.60;1510.40;;;;;;5090402;28;20016;-70
2021/08/03 08:36:47;;;;;;;6.13;2.20;;;665.60;1510.40;;;;;;5092337;28;20381;-70
2021/08/03 08:39:13;;;;;;;69.72;5.40;;;665.70;1510.40;;;;;;5091888;28;20024;-70
2021/08/03 08:41:39;;;;;;;13.02;3.17;;;665.70;1510.40;;;;;;5092194;28;20016;-70
2021/08/03 08:44:05;;;;;;;3.25;1.85;;;665.70;1484.80;;;;;;5091475;28;20020;-70
2021/08/03 08:46:36;;;;;;;6.53;2.13;;;665.80;1459.20;;;;;;5091664;28;20400;-70
2021/08/03 08:49:04;;;;;;;7.25;1.63;;;665.80;1484.80;;;;;;5091555;28;20024;-76
2021/08/03 08:51:30;;;;;;;20.05;2.40;;;665.90;1459.20;;;;;;5091878;28;20058;-70
2021/08/03 08:53:57;;;;;;;7.68;2.17;;;666.00;1510.40;;;;;;5091973;28;20055;-70
2021/08/03 08:56:23;;;;;;;9.15;1.98;;;666.00;1484.80;;;;;;5090393;28;20020;-69
2021/08/03 08:58:49;;;;;;;21.00;2.28;;;666.00;1459.20;;;;;;5091953;28;20032;-70
2021/08/03 09:01:15;;;;;;;2.45;1.90;;;666.10;1459.20;;;;;;5091586;28;20073;-70
2021/08/03 09:03:43;;;;;;;5.75;2.03;;;666.10;1459.20;;;;;;5092062;28;20028;-71
2021/08/03 09:06:10;;;;;;;8.15;1.95;;;666.10;1510.40;;;;;;5091271;28;20024;-78
2021/08/03 09:08:37;;;;;;;6.45;2.20;;;666.10;1459.20;;;;;;5091987;28;20024;-71
2021/08/03 09:11:07;;;;;;;3.78;1.70;;;666.10;1433.60;;;;;;5090163;28;20020;-70
2021/08/03 09:14:00;;;;;;;4.93;1.83;;;666.10;1408.00;;;;;;5088969;28;20095;-69
2021/08/03 09:16:41;;;;;;;30.23;3.42;;;666.10;1408.00;;;;;;5090412;28;20631;-70
2021/08/03 09:19:08;;;;;;;10.57;2.55;;;666.30;1484.80;;;;;;5090266;28;20028;-71
2021/08/03 09:21:33;;;;;;;4.13;1.60;;;666.30;1484.80;;;;;;5088980;28;20018;-70
2021/08/03 09:24:01;;;;;;;8.30;1.95;;;666.30;1433.60;;;;;;5092356;28;20020;-74
2021/08/03 09:26:42;;;;;;;14.98;2.78;;;666.30;1433.60;;;;;;5095843;28;20016;-71
2021/08/03 09:29:11;;;;;;;12.82;2.03;;;666.30;1510.40;;;;;;5093704;28;20117;-71
2021/08/03 09:31:39;;;;;;;15.15;3.70;;;666.40;1484.80;;;;;;5097019;28;20411;-70
2021/08/03 09:34:14;;;;;;;6.53;1.70;;;666.40;1484.80;;;;;;5096295;28;20016;-69
2021/08/03 09:36:52;;;;;;;2.15;1.25;;;666.40;1433.60;;;;;;5095005;28;20031;-73
2021/08/03 09:39:39;;;;;;;19.35;3.42;;;666.40;1382.40;;;;;;5096580;28;20024;-71
2021/08/03 09:42:12;;;;;;;8.85;1.80;;;666.50;1459.20;;;;;;5095998;28;20150;-72
2021/08/03 09:44:48;;;;;;;4.57;1.77;;;666.50;1408.00;;;;;;5096410;28;20028;-70
2021/08/03 09:47:14;;;;;;;18.63;3.08;;;666.50;1408.00;;;;;;5095160;28;20040;-70
2021/08/03 09:49:42;;;;;;;7.07;1.77;;;691.20;1484.80;;;;;;5095287;28;20113;-70
2021/08/03 09:52:11;;;;;;;30.17;3.95;;;691.20;1433.60;;;;;;5093719;28;20042;-70
2021/08/03 09:54:38;;;;;;;110.10;8.05;;;691.30;1459.20;;;;;;5095530;28;20020;-70
2021/08/03 09:57:17;;;;;;;17.15;3.17;;;691.30;1484.80;;;;;;5095344;28;20020;-71
2021/08/03 09:59:43;;;;;;;34.30;4.05;;;691.30;1433.60;;;;;;5096418;28;20031;-73
2021/08/03 10:02:16;;;;;;;26.85;3.20;;;691.40;1510.40;;;;;;5094331;28;20028;-70
2021/08/03 10:04:46;;;;;;;19.27;2.90;;;691.40;1484.80;;;;;;5096269;28;20035;-71
2021/08/03 10:07:13;;;;;;;7.68;1.83;;;691.40;1459.20;;;;;;5095362;28;20036;-71
2021/08/03 10:09:39;;;;;;;15.70;2.22;;;691.50;1356.80;;;;;;5096017;28;20517;-69
2021/08/03 10:12:05;;;;;;;15.38;2.28;;;691.50;1408.00;;;;;;5094361;28;20028;-71
2021/08/03 10:14:31;;;;;;;12.50;2.05;;;691.50;1408.00;;;;;;5094555;28;20020;-71
2021/08/03 10:16:57;;;;;;;11.75;2.40;;;691.50;1459.20;;;;;;5095829;28;20020;-70
2021/08/03 10:19:29;;;;;;;8.73;2.47;;;691.50;1382.40;;;;;;5095454;28;20024;-72
2021/08/03 10:22:20;;;;;;;7.95;2.30;;;691.50;1331.20;;;;;;5095973;28;20020;-70
2021/08/03 10:25:10;;;;;;;8.23;1.92;;;691.60;1408.00;;;;;;5095442;28;20020;-70
2021/08/03 10:27:43;;;;;;;7.30;1.95;;;691.60;1459.20;;;;;;5095375;28;20031;-71
2021/08/03 10:30:28;;;;;;;;;;;691.60;1459.20;;;;;;5095377;28;20012;-71
2021/08/03 10:32:59;;;;;;;6.43;1.80;;;691.70;1356.80;;;;;;5095612;28;19970;-72
2021/08/03 10:35:49;;;;;;;10.70;2.00;;;691.60;1459.20;;;;;;5100563;28;20031;-71
2021/08/03 10:38:28;;;;;;;8.05;1.92;;;691.60;1408.00;;;;;;5098633;28;20042;-72
2021/08/03 10:41:03;;;;;;;6.55;1.77;;;691.70;1433.60;;;;;;5104212;28;20476;-79
2021/08/03 10:43:34;;;;;;;9.52;2.15;;;691.60;1433.60;;;;;;5103136;28;20020;-70
2021/08/03 10:46:06;;;;;;;4.93;2.10;;;691.70;1433.60;;;;;;5103060;28;20503;-71
2021/08/03 10:48:38;;;;;;;8.30;2.33;;;691.70;1433.60;;;;;;5105189;28;20395;-71
2021/08/03 10:51:16;;;;;;;4.57;2.25;;;691.70;1433.60;;;;;;5103747;28;20023;-71
2021/08/03 10:53:59;;;;;;;4.55;2.10;;;691.70;1433.60;;;;;;5102753;28;20103;-73
2021/08/03 10:56:26;;;;;;;5.95;2.50;;;691.70;1433.60;;;;;;5101617;28;20368;-71
2021/08/03 10:59:30;;;;;;;4.65;2.17;;;691.70;1408.00;;;;;;5104701;28;20011;-72
2021/08/03 11:01:57;;;;;;;5.30;2.40;;;691.70;1433.60;;;;;;5104207;28;20020;-76
2021/08/03 11:04:41;;;;;;;4.97;2.80;;;691.70;1433.60;;;;;;5105956;28;20475;-72
2021/08/03 11:07:34;;;;;;;4.55;3.00;;;691.80;1433.60;;;;;;5094937;28;20605;-70
2021/08/03 11:10:10;;;;;;;7.33;2.63;;;691.70;1433.60;;;;;;5088680;28;20089;-71
2021/08/03 11:12:37;;;;;;;6.85;2.80;;;691.80;1433.60;;;;;;5094276;28;20035;-71
2021/08/03 11:15:24;;;;;;;6.80;6.10;;;691.80;1433.60;;;;;;5094956;28;20384;-70
2021/08/03 11:17:54;;;;;;;8.88;4.70;;;691.80;1331.20;;;;;;5094263;28;20081;-75
2021/08/03 11:20:45;;;;;;;10.52;5.63;;;691.80;1408.00;;;;;;5093933;28;20091;-78
2021/08/03 11:23:13;;;;;;;84.25;17.20;;;691.80;1382.40;;;;;;5069357;28;20128;-70
2021/08/03 11:25:41;;;;;;;55.85;9.35;;;691.80;1356.80;;;;;;5074256;28;20060;-77
2021/08/03 11:28:12;;;;;;;50.92;9.77;;;691.90;1382.40;;;;;;5074158;28;20090;-70
2021/08/03 11:30:39;;;;;;;60.03;8.07;;;691.90;1408.00;;;;;;5073957;28;20508;-70
2021/08/03 11:33:05;;;;;;;57.95;8.27;;;692.00;1382.40;;;;;;5074538;28;20504;-71
2021/08/03 11:35:32;;;;;;;55.15;9.00;;;692.10;1433.60;;;;;;5073843;28;20021;-70
2021/08/03 11:38:10;;;;;;;54.33;8.70;;;692.00;1408.00;;;;;;5073976;28;20490;-69
2021/08/03 11:40:38;;;;;;;35.28;8.27;;;692.10;1433.60;;;;;;5093631;28;20080;-69
2021/08/03 11:43:06;;;;;;;48.85;14.32;;;692.10;1382.40;;;;;;5093871;28;20032;-69
2021/08/03 11:45:36;;;;;;;74.35;12.15;;;716.80;1459.20;;;;;;5093774;28;20024;-70
2021/08/03 11:48:22;;;;;;;57.28;12.07;;;716.80;1459.20;;;;;;5092710;28;20044;-70
2021/08/03 11:50:48;;;;;;;76.43;13.10;;;716.90;1459.20;;;;;;5094157;28;20031;-70
2021/08/03 11:53:16;;;;;;;35.15;9.77;;;716.90;1459.20;;;;;;5093865;28;20380;-69
2021/08/03 11:55:53;;;;;;;25.33;8.25;;;716.90;1459.20;;;;;;5092832;28;20428;-71
2021/08/03 11:58:21;;;;;;;31.95;9.07;;;716.90;1433.60;;;;;;5093509;28;20024;-70
2021/08/03 12:00:54;;;;;;;26.02;8.50;;;716.90;1433.60;;;;;;5094150;28;20035;-70
2021/08/03 12:03:33;;;;;;;;;;;716.90;1433.60;;;;;;5092918;28;20020;-70
2021/08/03 12:06:04;;;;;;;15.38;6.97;;;716.90;1433.60;;;;;;5094115;28;19919;-72
2021/08/03 12:08:37;;;;;;;18.88;7.95;;;716.90;1408.00;;;;;;5093578;28;20032;-69
2021/08/03 12:11:04;;;;;;;15.75;6.50;;;716.90;1408.00;;;;;;5094118;28;20016;-69
2021/08/03 12:13:33;;;;;;;28.02;9.30;;;716.90;1331.20;;;;;;5092208;28;20032;-69
2021/08/03 12:16:01;;;;;;;27.85;9.88;;;716.90;1433.60;;;;;;5093814;28;20020;-70
2021/08/03 12:18:41;;;;;;;22.92;12.02;;;716.90;1433.60;;;;;;5093647;28;20027;-70
2021/08/03 12:21:08;;;;;;;22.40;16.40;;;716.80;1408.00;;;;;;5093230;28;20411;-69
2021/08/03 12:23:36;;;;;;;16.08;8.98;;;716.80;1382.40;;;;;;5093317;28;20024;-70
2021/08/03 12:26:08;;;;;;;16.90;8.93;;;716.90;1331.20;;;;;;5093332;28;20507;-70
2021/08/03 12:28:43;;;;;;;17.75;9.90;;;717.00;1433.60;;;;;;5093852;28;20032;-69